Time;durP1;ratioP1;P1;durP2;ratioP2;P2;SDS_P1;SDS_P2;PMS_P1;PMS_P2;Temp;Humidity;BMP_temperature;BMP_pressure;BME280_temperature;BME280_humidity;BME280_pressure;Samples;Min_cycle;Max_cycle;Signal;HPM_P1;HPM_P2
2022/07/14 05:34:52;;;;;;;5.22;3.25;;;;;;;17.59;90.80;97869.02;1861696;77;20911;-60
2022/07/14 05:37:19;;;;;;;6.90;3.22;;;;;;;17.65;90.40;97868.23;1861589;77;21172;-57
2022/07/14 05:39:46;;;;;;;5.45;3.10;;;;;;;17.71;90.09;97877.14;1853595;77;20856;-56
2022/07/14 05:42:14;;;;;;;5.87;3.15;;;;;;;17.80;89.63;97873.54;1853534;75;21425;-58
2022/07/14 05:44:41;;;;;;;3.50;3.00;;;;;;;17.90;88.64;97874.45;1802414;78;21404;-61
2022/07/14 05:47:08;;;;;;;4.60;2.77;;;;;;;18.02;87.78;97874.41;1771364;79;20996;-59
2022/07/14 05:54:46;;;;;;;4.55;3.08;;;;;;;18.43;85.69;97874.10;1889758;76;26523;-58
2022/07/14 05:57:15;;;;;;;7.87;2.90;;;;;;;18.47;85.52;97869.59;1853750;77;20958;-59
2022/07/14 05:59:43;;;;;;;5.95;2.62;;;;;;;18.56;84.86;97872.19;1837267;77;21220;-60
2022/07/14 06:02:10;;;;;;;6.85;2.85;;;;;;;18.67;84.88;97884.11;1838059;77;20937;-60
2022/07/14 06:04:37;;;;;;;5.45;2.45;;;;;;;18.75;83.55;97878.53;1841128;77;20946;-60
2022/07/14 06:07:09;;;;;;;6.08;2.47;;;;;;;18.83;83.41;97887.66;1831899;77;20970;-60
2022/07/14 06:09:38;;;;;;;3.80;2.33;;;;;;;18.91;83.01;97882.07;1841218;77;20962;-61
2022/07/14 06:12:06;;;;;;;3.40;2.55;;;;;;;19.00;82.40;97881.38;1842465;77;21091;-60
2022/07/14 06:14:36;;;;;;;9.05;2.77;;;;;;;19.10;81.75;97875.41;1861376;77;20872;-63
2022/07/14 06:17:03;;;;;;;6.78;2.92;;;;;;;19.23;81.29;97879.42;1833064;77;20919;-62
2022/07/14 06:19:29;;;;;;;5.37;2.33;;;;;;;19.33;81.40;97878.34;1826725;77;21040;-62
2022/07/14 06:34:08;;;;;;;3.75;2.35;;;;;;;19.68;79.12;97875.73;1890661;76;27028;-60
2022/07/14 06:36:37;;;;;;;3.85;2.40;;;;;;;19.66;78.79;97882.10;1850833;77;20911;-62
2022/07/14 06:39:04;;;;;;;5.50;2.60;;;;;;;19.73;77.83;97887.70;1861484;77;21210;-62
2022/07/14 06:41:32;;;;;;;4.00;2.30;;;;;;;19.81;76.76;97878.56;1842051;77;21032;-61
2022/07/14 06:43:59;;;;;;;4.75;2.20;;;;;;;19.91;75.34;97879.39;1832259;77;21022;-60
2022/07/14 06:46:28;;;;;;;4.00;2.25;;;;;;;20.02;75.90;97872.85;1827563;77;21014;-61
2022/07/14 06:48:54;;;;;;;3.83;2.40;;;;;;;20.11;75.51;97879.67;1781079;79;21556;-62
2022/07/14 06:51:21;;;;;;;3.40;2.20;;;;;;;20.22;75.64;97880.72;1798818;78;21296;-61
2022/07/14 06:57:48;;;;;;;3.62;2.08;;;;;;;20.37;74.35;97882.59;1791842;79;20980;-59
2022/07/14 07:00:16;;;;;;;7.58;2.45;;;;;;;20.52;73.96;97880.16;1776094;80;21093;-60
2022/07/14 07:02:43;;;;;;;8.55;2.35;;;;;;;20.62;74.60;97880.39;1781443;80;20958;-62
2022/07/14 07:07:58;;;;;;;3.67;2.45;;;;;;;20.83;71.71;97869.14;1774009;80;21536;-63
2022/07/14 07:10:27;;;;;;;3.85;2.58;;;;;;;20.90;71.75;97878.80;1791759;78;21072;-62
2022/07/14 07:12:55;;;;;;;4.20;2.40;;;;;;;20.97;70.31;97872.13;1771444;79;20947;-60
2022/07/14 07:15:23;;;;;;;5.25;2.10;;;;;;;21.04;70.40;97876.34;1778000;79;20935;-60
2022/07/14 07:17:49;;;;;;;5.25;2.40;;;;;;;21.10;70.35;97883.88;1787488;80;21281;-61
2022/07/14 07:20:17;;;;;;;2.52;1.95;;;;;;;21.17;70.16;97887.34;1780558;80;21045;-61
2022/07/14 07:22:44;;;;;;;7.70;2.40;;;;;;;21.23;69.48;97879.06;1757159;80;21497;-60
2022/07/14 07:25:12;;;;;;;5.45;2.42;;;;;;;21.29;67.79;97881.69;1768415;79;21055;-59
2022/07/14 07:27:39;;;;;;;4.97;2.20;;;;;;;21.37;67.96;97880.67;1778623;80;21015;-59
2022/07/14 07:30:08;;;;;;;5.10;2.22;;;;;;;21.46;68.28;97879.06;1768462;80;21249;-61
2022/07/14 07:32:36;;;;;;;5.12;2.22;;;;;;;21.54;68.72;97876.11;1757333;80;20966;-60
2022/07/14 07:35:05;;;;;;;5.95;2.00;;;;;;;21.64;67.36;97872.78;1757494;80;21056;-61
2022/07/14 07:37:32;;;;;;;4.03;2.25;;;;;;;21.72;67.58;97881.27;1749014;80;21010;-61
2022/07/14 07:40:00;;;;;;;4.58;1.90;;;;;;;21.78;66.36;97878.46;1765442;80;21009;-60
2022/07/14 07:42:29;;;;;;;4.12;2.10;;;;;;;21.84;66.33;97881.67;1746578;79;21230;-57
2022/07/14 07:44:56;;;;;;;4.53;1.92;;;;;;;21.94;66.44;97878.91;1752194;79;21061;-59
2022/07/14 07:47:24;;;;;;;4.33;1.95;;;;;;;22.00;64.38;97877.45;1798060;79;21051;-54
2022/07/14 07:49:52;;;;;;;4.50;1.92;;;;;;;22.06;62.47;97875.97;1783458;79;21106;-61
2022/07/14 07:52:20;;;;;;;2.87;1.80;;;;;;;22.11;61.88;97875.09;1825014;77;21067;-64
2022/07/14 07:54:47;;;;;;;2.65;1.85;;;;;;;22.14;60.88;97869.48;1827535;77;21378;-62
2022/07/14 07:57:22;;;;;;;5.45;2.00;;;;;;;22.15;61.74;97862.84;1821923;77;21006;-62
2022/07/14 07:59:56;;;;;;;3.00;1.98;;;;;;;22.22;63.78;97867.03;1819518;77;20931;-62
2022/07/14 08:02:37;;;;;;;3.42;2.12;;;;;;;22.27;60.93;97865.36;1819509;77;20935;-59
2022/07/14 08:05:12;;;;;;;3.58;2.10;;;;;;;22.34;62.61;97864.09;1818837;77;20983;-60
2022/07/14 08:07:47;;;;;;;7.85;2.40;;;;;;;22.38;62.71;97860.25;1807751;77;21722;-60
2022/07/14 08:10:19;;;;;;;3.77;2.15;;;;;;;22.46;61.64;97859.77;1824593;77;20992;-61
2022/07/14 08:12:47;;;;;;;6.62;2.00;;;;;;;22.54;62.70;97859.28;1816041;77;20982;-61
2022/07/14 08:15:14;;;;;;;5.90;2.33;;;;;;;22.64;63.52;97864.89;1812173;77;21057;-63
2022/07/14 08:17:41;;;;;;;7.12;2.40;;;;;;;22.70;62.78;97872.97;1761433;80;21045;-62
2022/07/14 08:20:09;;;;;;;2.87;1.90;;;;;;;22.78;62.22;97872.45;1791946;79;21202;-60
2022/07/14 08:22:37;;;;;;;4.12;2.20;;;;;;;22.83;63.27;97868.03;1754666;79;21039;-61
2022/07/14 08:25:07;;;;;;;3.85;1.90;;;;;;;22.89;61.12;97870.05;1816858;77;21042;-61
2022/07/14 08:27:35;;;;;;;6.95;2.00;;;;;;;22.92;60.51;97866.58;1819640;77;21082;-60
2022/07/14 08:30:01;;;;;;;6.87;2.30;;;;;;;22.99;60.35;97868.02;1811333;77;21066;-60
2022/07/14 08:32:49;;;;;;;3.08;2.10;;;;;;;23.09;61.40;97872.81;1806419;78;22070;-61
2022/07/14 08:35:17;;;;;;;4.00;2.10;;;;;;;23.18;60.89;97878.55;1820604;77;20916;-62
2022/07/14 08:37:43;;;;;;;6.12;1.98;;;;;;;23.27;60.25;97877.08;1811390;77;20957;-63
2022/07/14 08:40:15;;;;;;;2.60;1.85;;;;;;;23.31;60.03;97871.66;1816580;77;21498;-61
2022/07/14 08:42:48;;;;;;;3.55;1.80;;;;;;;23.35;59.67;97861.58;1816751;77;21420;-60
2022/07/14 08:45:21;;;;;;;3.42;2.20;;;;;;;23.44;60.07;97864.77;1825524;77;21234;-59
2022/07/14 08:47:48;;;;;;;4.80;1.90;;;;;;;23.50;59.42;97864.08;1828533;77;21026;-64
2022/07/14 08:50:17;;;;;;;3.42;2.00;;;;;;;23.61;59.55;97852.64;1824235;77;21553;-62
2022/07/14 08:52:44;;;;;;;4.08;1.90;;;;;;;23.69;56.49;97860.32;1819948;77;21453;-56
2022/07/14 08:55:16;;;;;;;3.75;2.10;;;;;;;23.73;57.36;97858.39;1771012;79;21098;-57
2022/07/14 08:57:43;;;;;;;2.92;1.70;;;;;;;23.81;56.37;97851.83;1775671;79;21087;-61
2022/07/14 09:00:18;;;;;;;4.72;1.82;;;;;;;23.95;57.88;97851.13;1773899;79;20964;-59
2022/07/14 09:02:50;;;;;;;4.25;1.80;;;;;;;24.08;54.81;97853.77;1778107;79;21510;-60
2022/07/14 09:05:18;;;;;;;3.25;1.77;;;;;;;24.16;52.95;97856.19;1773190;79;20995;-61
2022/07/14 09:07:44;;;;;;;2.37;1.60;;;;;;;24.22;55.13;97862.86;1757300;80;21029;-61
2022/07/14 09:10:20;;;;;;;4.55;1.70;;;;;;;24.27;54.78;97841.97;1760446;80;21242;-61
2022/07/14 09:12:45;;;;;;;3.52;2.00;;;;;;;24.36;54.43;97841.03;1812669;77;20974;-61
2022/07/14 09:18:04;;;;;;;4.25;1.62;;;;;;;24.57;53.37;97847.77;1811355;77;21033;-63
2022/07/14 09:20:33;;;;;;;3.08;1.77;;;;;;;24.58;53.53;97853.45;1818772;77;21469;-62
2022/07/14 09:23:01;;;;;;;2.35;1.80;;;;;;;24.49;53.76;97854.58;1815012;77;21115;-60
2022/07/14 09:25:30;;;;;;;3.58;1.95;;;;;;;24.38;53.77;97858.44;1816601;77;21066;-62
2022/07/14 09:27:57;;;;;;;7.20;1.82;;;;;;;24.35;53.54;97854.50;1822082;77;21060;-60
2022/07/14 09:30:24;;;;;;;2.60;1.90;;;;;;;24.29;54.22;97862.89;1825639;77;21038;-64
2022/07/14 09:32:58;;;;;;;5.17;1.80;;;;;;;24.31;55.43;97849.61;1824738;77;21075;-62
2022/07/14 09:35:38;;;;;;;4.95;2.08;;;;;;;24.44;58.01;97848.12;1817785;77;21127;-58
2022/07/14 09:38:22;;;;;;;6.65;2.12;;;;;;;24.58;56.42;97844.66;1813597;77;21034;-61
2022/07/14 09:40:51;;;;;;;3.15;1.57;;;;;;;24.72;55.32;97849.39;1768375;80;21001;-59
2022/07/14 09:43:18;;;;;;;5.37;2.05;;;;;;;24.82;55.20;97850.05;1758853;80;21051;-59
2022/07/14 09:45:49;;;;;;;2.85;1.57;;;;;;;24.80;52.41;97857.88;1766699;80;21091;-60
2022/07/14 09:48:17;;;;;;;4.03;1.60;;;;;;;24.76;52.92;97851.55;1820967;77;21321;-59
2022/07/14 09:50:57;;;;;;;4.90;1.87;;;;;;;24.78;51.16;97851.98;1814750;77;20971;-60
2022/07/14 09:53:26;;;;;;;2.22;1.70;;;;;;;24.81;52.17;97848.47;1822279;77;20987;-61
2022/07/14 09:56:06;;;;;;;7.00;1.60;;;;;;;24.90;52.15;97846.15;1825196;77;21493;-60
2022/07/14 09:58:54;;;;;;;7.05;1.72;;;;;;;25.01;52.34;97836.02;1816284;77;21070;-60
2022/07/14 10:01:23;;;;;;;6.33;1.87;;;;;;;25.11;52.11;97837.98;1816614;77;21664;-60
2022/07/14 10:03:52;;;;;;;3.30;1.65;;;;;;;25.15;51.82;97834.68;1821327;77;21079;-61
2022/07/14 10:06:19;;;;;;;4.15;1.85;;;;;;;25.24;51.98;97836.45;1776250;79;20972;-59
2022/07/14 10:08:57;;;;;;;3.77;1.70;;;;;;;25.34;50.85;97841.16;1764399;80;21079;-59
2022/07/14 10:11:24;;;;;;;3.00;1.77;;;;;;;25.44;51.29;97839.03;1767315;79;21015;-59
2022/07/14 10:13:50;;;;;;;6.30;2.10;;;;;;;25.48;50.86;97845.31;1759695;80;21135;-59
2022/07/14 10:16:18;;;;;;;3.12;1.85;;;;;;;25.48;50.10;97837.67;1756507;80;20880;-59
2022/07/14 10:18:45;;;;;;;4.37;1.45;;;;;;;25.48;49.98;97841.20;1759009;80;21015;-60
2022/07/14 10:21:11;;;;;;;3.70;1.50;;;;;;;25.50;49.24;97838.85;1738390;81;20991;-60
2022/07/14 10:23:38;;;;;;;2.77;1.50;;;;;;;25.53;49.40;97838.66;1811503;77;21036;-60
2022/07/14 10:26:08;;;;;;;4.67;1.60;;;;;;;25.55;49.33;97841.20;1819645;77;21246;-60
2022/07/14 10:28:33;;;;;;;4.67;1.42;;;;;;;25.55;48.43;97837.09;1824605;77;20955;-59
2022/07/14 10:31:27;;;;;;;2.35;1.40;;;;;;;25.56;50.20;97834.53;1763100;80;21063;-59
2022/07/14 10:34:22;;;;;;;3.15;1.57;;;;;;;25.59;47.83;97840.61;1751048;80;21145;-58
2022/07/14 10:37:03;;;;;;;5.33;1.90;;;;;;;25.51;47.78;97830.80;1738880;80;21110;-59
2022/07/14 10:39:51;;;;;;;3.02;1.70;;;;;;;25.42;48.88;97834.50;1757046;79;21127;-59
2022/07/14 10:42:41;;;;;;;2.58;1.50;;;;;;;25.42;49.63;97828.22;1766711;79;21111;-62
2022/07/14 10:45:08;;;;;;;5.67;1.80;;;;;;;25.45;50.10;97829.64;1787087;78;21384;-61
2022/07/14 10:47:48;;;;;;;4.40;1.70;;;;;;;25.48;49.36;97829.45;1764150;79;20992;-61
2022/07/14 10:50:26;;;;;;;2.75;1.57;;;;;;;25.51;49.13;97826.69;1776630;79;21012;-60
2022/07/14 10:53:05;;;;;;;4.58;1.50;;;;;;;25.60;49.35;97827.08;1780899;78;21224;-61
2022/07/14 10:55:35;;;;;;;3.87;1.40;;;;;;;25.65;47.11;97822.57;1813577;77;20970;-61
2022/07/14 10:58:10;;;;;;;2.22;1.47;;;;;;;25.72;48.39;97832.75;1824979;77;21093;-60
2022/07/14 11:00:55;;;;;;;2.83;1.77;;;;;;;25.84;48.57;97821.98;1818690;77;20991;-61
2022/07/14 11:03:37;;;;;;;3.25;1.52;;;;;;;25.97;47.96;97827.24;1831630;77;21077;-59
2022/07/14 11:06:12;;;;;;;3.92;1.75;;;;;;;26.09;47.47;97830.95;1819409;77;21104;-61
2022/07/14 11:08:42;;;;;;;3.35;1.50;;;;;;;26.16;47.66;97833.70;1813310;79;21004;-59
2022/07/14 11:11:19;;;;;;;4.00;1.50;;;;;;;26.24;45.73;97835.23;1818817;77;21509;-59
2022/07/14 11:14:12;;;;;;;2.25;1.30;;;;;;;26.01;46.60;97828.01;1808482;77;21060;-59
2022/07/14 11:16:53;;;;;;;1.95;1.40;;;;;;;26.01;46.60;97828.01;1821384;77;21149;-59
2022/07/14 11:19:31;;;;;;;2.72;1.60;;;;;;;26.07;46.45;97831.35;1827367;77;21251;-58
2022/07/14 11:22:16;;;;;;;1.85;1.50;;;;;;;26.07;46.45;97831.35;1811078;77;21016;-60
2022/07/14 11:24:58;;;;;;;3.60;1.52;;;;;;;26.09;46.50;97822.71;1809502;77;20990;-59
2022/07/14 11:27:43;;;;;;;3.87;1.67;;;;;;;26.19;47.52;97824.69;1764427;79;21102;-60
2022/07/14 11:30:28;;;;;;;2.70;1.42;;;;;;;26.34;46.76;97828.35;1752524;80;21079;-60
2022/07/14 11:33:07;;;;;;;4.40;1.37;;;;;;;26.40;46.45;97827.36;1764467;80;21017;-60
2022/07/14 11:38:34;;;;;;;2.95;1.27;;;;;;;26.71;46.11;97812.69;1810834;77;21060;-59
2022/07/14 11:41:13;;;;;;;4.20;1.42;;;;;;;27.10;43.71;97826.25;1806615;78;21495;-59
2022/07/14 11:43:37;;;;;;;3.20;1.70;;;;;;;27.10;43.71;97826.25;1816885;77;21532;-61
2022/07/14 11:46:11;;;;;;;5.65;1.40;;;;;;;27.19;43.87;97816.16;1771608;80;21702;-61
2022/07/14 11:48:44;;;;;;;3.42;1.42;;;;;;;27.29;42.06;97824.94;1812126;78;20911;-61
2022/07/14 11:51:20;;;;;;;3.10;1.40;;;;;;;27.36;42.03;97820.17;1808531;79;20932;-60
2022/07/14 11:53:59;;;;;;;2.85;1.72;;;;;;;27.41;40.90;97818.99;1814221;78;20892;-62
2022/07/14 11:56:27;;;;;;;2.83;1.40;;;;;;;27.43;41.80;97823.48;1818692;77;21041;-62
2022/07/14 11:58:58;;;;;;;5.22;1.60;;;;;;;27.48;41.73;97818.35;1767750;80;21218;-61
2022/07/14 12:01:33;;;;;;;6.08;1.40;;;;;;;27.34;41.62;97821.77;1810568;79;20883;-60
2022/07/14 12:04:10;;;;;;;4.22;1.42;;;;;;;27.27;41.10;97821.81;1815803;78;20860;-61
2022/07/14 12:06:40;;;;;;;6.72;1.60;;;;;;;27.03;41.93;97821.59;1816594;77;20966;-60
2022/07/14 12:09:06;;;;;;;3.85;1.55;;;;;;;26.70;42.12;97822.72;1815884;79;21068;-60
2022/07/14 12:11:33;;;;;;;4.78;1.57;;;;;;;26.50;43.15;97816.15;1832641;77;21194;-60
2022/07/14 12:14:00;;;;;;;3.92;1.30;;;;;;;26.53;44.27;97816.70;1764505;80;20992;-60
2022/07/14 12:16:27;;;;;;;3.90;1.37;;;;;;;26.76;44.77;97822.51;1790082;79;21034;-61
2022/07/14 12:18:55;;;;;;;1.62;1.50;;;;;;;26.72;43.99;97822.51;1815779;78;20958;-61
2022/07/14 12:21:36;;;;;;;3.17;1.50;;;;;;;26.77;43.42;97813.88;1813003;78;20824;-61
2022/07/14 12:24:04;;;;;;;4.40;1.37;;;;;;;26.77;43.42;97813.88;1808622;78;21107;-61
2022/07/14 12:26:31;;;;;;;3.90;1.40;;;;;;;26.89;43.50;97813.42;1818930;77;20863;-61
2022/07/14 12:29:00;;;;;;;1.92;1.37;;;;;;;26.93;43.05;97806.52;1836502;77;20899;-61
2022/07/14 12:31:27;;;;;;;7.12;1.30;;;;;;;27.00;43.39;97810.02;1837165;77;20879;-61
2022/07/14 12:33:58;;;;;;;4.58;1.85;;;;;;;27.12;42.35;97808.76;1823123;77;20951;-60
2022/07/14 12:36:27;;;;;;;5.20;1.40;;;;;;;27.01;41.68;97812.17;1764830;80;21091;-61
2022/07/14 12:38:53;;;;;;;2.98;1.32;;;;;;;26.80;40.95;97819.95;1803936;78;20887;-60
2022/07/14 12:41:23;;;;;;;4.47;1.42;;;;;;;26.77;41.69;97818.59;1775630;80;20900;-60
2022/07/14 12:43:49;;;;;;;5.53;1.35;;;;;;;26.76;40.90;97809.56;1804352;78;20963;-60
2022/07/14 12:46:18;;;;;;;3.45;1.10;;;;;;;26.98;41.34;97812.39;1774122;80;20975;-60
2022/07/14 12:49:01;;;;;;;2.35;1.30;;;;;;;27.35;43.31;97808.19;1735668;81;21074;-61
2022/07/14 12:51:43;;;;;;;4.40;1.32;;;;;;;27.87;42.84;97797.34;1828292;77;21537;-60
2022/07/14 12:54:18;;;;;;;1.77;1.30;;;;;;;28.20;42.54;97801.34;1758640;80;20881;-61
2022/07/14 12:56:53;;;;;;;1.55;1.10;;;;;;;28.18;41.02;97804.52;1753070;80;20917;-60
2022/07/14 12:59:26;;;;;;;2.75;1.50;;;;;;;27.91;42.62;97800.84;1757355;80;21246;-60
2022/07/14 13:02:00;;;;;;;3.52;1.30;;;;;;;27.83;43.00;97803.48;1758798;80;21145;-61
2022/07/14 13:04:45;;;;;;;2.37;1.35;;;;;;;27.84;42.50;97798.77;1756401;80;21085;-60
2022/07/14 13:07:24;;;;;;;4.00;1.37;;;;;;;27.85;42.70;97795.60;1751614;80;20946;-60
2022/07/14 13:10:16;;;;;;;4.58;1.40;;;;;;;27.83;43.35;97796.61;1748413;79;20859;-60
2022/07/14 13:12:47;;;;;;;1.75;1.22;;;;;;;27.97;42.25;97800.59;1767276;80;20988;-60
2022/07/14 13:15:26;;;;;;;3.58;1.57;;;;;;;28.31;41.00;97796.52;1765655;80;21211;-60
2022/07/14 13:18:05;;;;;;;2.42;1.40;;;;;;;28.43;40.74;97805.01;1770656;80;21529;-60
2022/07/14 13:20:50;;;;;;;1.95;1.20;;;;;;;28.45;40.87;97796.34;1803374;79;20875;-62
2022/07/14 13:23:37;;;;;;;5.72;1.60;;;;;;;28.46;41.25;97798.69;1806206;78;20900;-61
2022/07/14 13:26:12;;;;;;;2.80;1.17;;;;;;;28.50;40.64;97788.23;1777078;80;20998;-61
2022/07/14 13:28:47;;;;;;;1.50;1.05;;;;;;;28.73;41.09;97780.07;1809061;79;21228;-61
2022/07/14 13:31:17;;;;;;;9.58;1.47;;;;;;;28.95;40.42;97768.31;1775755;80;20936;-61
2022/07/14 13:33:47;;;;;;;3.05;1.40;;;;;;;29.04;39.87;97777.46;1802360;79;20897;-61
2022/07/14 13:36:14;;;;;;;2.17;1.32;;;;;;;29.00;39.53;97772.58;1784856;78;20956;-61
2022/07/14 13:38:41;;;;;;;2.87;1.20;;;;;;;28.97;39.74;97769.30;1782786;79;20868;-61
2022/07/14 13:41:10;;;;;;;2.20;1.27;;;;;;;28.90;40.55;97770.78;1771423;79;21121;-61
2022/07/14 13:43:37;;;;;;;4.03;1.22;;;;;;;28.73;39.61;97768.45;1772856;79;20908;-61
2022/07/14 13:46:03;;;;;;;4.92;1.20;;;;;;;28.41;40.68;97761.95;1807725;78;21011;-61
2022/07/14 13:48:30;;;;;;;2.27;1.20;;;;;;;28.08;41.20;97762.74;1774506;80;20935;-61
2022/07/14 13:53:42;;;;;;;2.08;1.20;;;;;;;27.61;42.43;97755.34;1777171;80;21229;-61
2022/07/14 13:56:08;;;;;;;7.00;1.52;;;;;;;27.50;42.83;97751.92;1775400;79;20861;-62
2022/07/14 13:58:35;;;;;;;1.37;1.17;;;;;;;27.64;43.48;97755.91;1792698;79;20896;-61
2022/07/14 14:01:01;;;;;;;5.22;1.32;;;;;;;28.07;42.98;97751.56;1774650;80;20912;-60
2022/07/14 14:03:28;;;;;;;9.68;1.30;;;;;;;28.59;41.50;97752.68;1823493;77;20892;-61
2022/07/14 14:06:02;;;;;;;3.92;1.20;;;;;;;29.13;40.75;97747.38;1770477;80;21230;-60
2022/07/14 14:08:31;;;;;;;2.00;1.20;;;;;;;29.53;39.50;97749.10;1793191;79;21012;-61
2022/07/14 14:10:57;;;;;;;3.55;1.15;;;;;;;29.84;39.24;97747.00;1769234;80;20849;-60
2022/07/14 14:13:28;;;;;;;2.35;1.30;;;;;;;30.18;37.38;97743.95;1756586;80;20932;-61
2022/07/14 14:15:57;;;;;;;2.90;1.20;;;;;;;30.40;37.48;97736.23;1798556;79;21443;-60
2022/07/14 14:18:24;;;;;;;2.67;1.20;;;;;;;30.51;37.40;97734.61;1792446;79;21298;-60
2022/07/14 14:20:51;;;;;;;3.80;1.07;;;;;;;30.39;36.32;97735.25;1807108;79;20852;-60
2022/07/14 14:23:18;;;;;;;3.35;1.40;;;;;;;29.90;37.36;97734.84;1774028;80;21566;-60
2022/07/14 14:25:44;;;;;;;3.12;1.10;;;;;;;29.46;38.42;97731.89;1790386;78;20968;-60
2022/07/14 14:28:11;;;;;;;5.90;1.22;;;;;;;29.13;39.20;97733.59;1778081;80;21007;-61
2022/07/14 14:30:38;;;;;;;3.55;1.10;;;;;;;28.90;40.02;97733.57;1806337;78;21233;-61
2022/07/14 14:33:05;;;;;;;2.45;1.15;;;;;;;28.72;40.61;97735.78;1780623;80;21071;-59
2022/07/14 14:35:31;;;;;;;6.55;1.20;;;;;;;28.55;40.60;97732.67;1771886;79;20955;-60
2022/07/14 14:38:02;;;;;;;3.62;1.10;;;;;;;28.48;40.59;97735.52;1801916;79;21502;-60
2022/07/14 14:40:30;;;;;;;2.50;1.30;;;;;;;28.57;41.13;97734.41;1775834;80;21451;-60
2022/07/14 14:42:57;;;;;;;2.70;1.40;;;;;;;28.92;40.27;97722.91;1790564;79;21109;-60
2022/07/14 14:45:23;;;;;;;1.82;1.07;;;;;;;29.15;38.74;97724.30;1780693;79;21367;-61
2022/07/14 14:47:50;;;;;;;1.77;1.30;;;;;;;29.19;39.32;97723.66;1793442;79;20932;-60
2022/07/14 14:50:17;;;;;;;2.60;1.20;;;;;;;29.28;39.47;97726.66;1776287;80;21051;-60
2022/07/14 14:52:46;;;;;;;1.45;1.02;;;;;;;29.50;39.34;97720.97;1759095;80;20983;-60
2022/07/14 14:55:12;;;;;;;1.70;1.20;;;;;;;29.85;38.31;97724.30;1770502;80;21218;-60
2022/07/14 14:57:38;;;;;;;2.80;1.05;;;;;;;30.16;37.63;97722.89;1782087;79;20972;-60
2022/07/14 15:00:10;;;;;;;5.95;1.07;;;;;;;30.41;37.98;97708.76;1763428;80;20960;-60
2022/07/14 15:02:36;;;;;;;1.60;1.00;;;;;;;30.44;36.68;97707.13;1777814;80;21007;-60
2022/07/14 15:05:04;;;;;;;2.77;1.00;;;;;;;30.18;37.15;97701.93;1801528;79;21111;-60
2022/07/14 15:07:31;;;;;;;2.65;0.98;;;;;;;29.77;37.81;97709.25;1777592;80;21109;-60
2022/07/14 15:09:59;;;;;;;2.10;1.00;;;;;;;29.35;38.40;97714.13;1794924;79;20833;-60
2022/07/14 15:12:26;;;;;;;2.45;1.30;;;;;;;28.88;38.67;97711.12;1801694;79;20901;-60
2022/07/14 15:14:53;;;;;;;3.47;1.20;;;;;;;28.48;39.65;97723.13;1780166;80;21411;-60
2022/07/14 15:17:20;;;;;;;2.85;1.32;;;;;;;28.10;40.43;97743.84;1787268;78;21367;-60
2022/07/14 15:19:47;;;;;;;3.35;1.22;;;;;;;27.61;41.86;97753.97;1795473;79;21109;-60
2022/07/14 15:22:15;;;;;;;4.15;1.22;;;;;;;27.18;42.76;97742.53;1771789;79;21014;-60
2022/07/14 15:24:45;;;;;;;2.45;1.17;;;;;;;27.05;43.13;97741.47;1788533;79;21352;-60
2022/07/14 15:27:14;;;;;;;7.35;1.30;;;;;;;27.19;43.22;97736.44;1777035;80;21561;-60
2022/07/14 15:29:42;;;;;;;1.82;1.00;;;;;;;27.53;42.75;97729.11;1800255;79;21043;-60
2022/07/14 15:32:09;;;;;;;3.65;1.10;;;;;;;27.85;42.20;97728.18;1764034;80;21917;-60
2022/07/14 15:34:38;;;;;;;3.80;1.35;;;;;;;28.08;41.57;97728.33;1751700;80;20970;-60
2022/07/14 15:37:07;;;;;;;2.95;1.05;;;;;;;28.06;40.32;97733.47;1820156;77;20923;-60
2022/07/14 15:42:20;;;;;;;2.15;1.05;;;;;;;27.52;40.48;97750.92;1834865;77;21150;-60
2022/07/14 15:44:46;;;;;;;1.45;1.10;;;;;;;27.01;41.76;97754.46;1810160;77;21208;-61
2022/07/14 15:47:13;;;;;;;2.20;1.30;;;;;;;26.56;43.42;97751.38;1818078;77;20911;-60
2022/07/14 15:49:39;;;;;;;2.02;1.00;;;;;;;26.16;44.51;97751.36;1817661;77;20876;-60
2022/07/14 15:52:06;;;;;;;3.85;1.40;;;;;;;25.85;45.41;97746.14;1819487;77;20920;-60
2022/07/14 15:54:34;;;;;;;4.90;1.35;;;;;;;25.64;46.36;97742.86;1819454;77;20994;-60
2022/07/14 15:57:02;;;;;;;1.57;1.30;;;;;;;25.51;47.09;97752.66;1833769;77;21183;-61
2022/07/14 15:59:29;;;;;;;2.08;1.25;;;;;;;25.40;47.49;97745.59;1832194;77;20899;-61
2022/07/14 16:01:56;;;;;;;3.75;1.15;;;;;;;25.29;48.26;97748.35;1743539;80;20921;-60
2022/07/14 16:04:24;;;;;;;2.52;1.25;;;;;;;25.17;49.26;97743.27;1789604;78;20924;-60
2022/07/14 16:06:52;;;;;;;3.60;1.55;;;;;;;25.05;49.63;97740.91;1788000;79;20877;-60
2022/07/14 16:09:20;;;;;;;3.58;1.40;;;;;;;24.91;50.16;97739.52;1777547;80;21259;-61
2022/07/14 16:11:46;;;;;;;2.17;1.40;;;;;;;24.75;51.13;97745.94;1808450;78;20921;-60
2022/07/14 16:14:13;;;;;;;4.50;1.50;;;;;;;24.42;52.71;97772.42;1771172;80;21059;-60
2022/07/14 16:16:41;;;;;;;1.72;1.25;;;;;;;24.42;52.71;97772.42;1830608;77;20938;-60
2022/07/14 16:19:08;;;;;;;2.55;1.50;;;;;;;24.22;53.78;97778.60;1819483;77;20923;-61
2022/07/14 16:21:36;;;;;;;4.12;1.80;;;;;;;24.00;54.39;97783.15;1833002;77;21112;-59
2022/07/14 16:24:04;;;;;;;2.30;1.50;;;;;;;23.81;54.99;97788.31;1791636;79;20944;-60
2022/07/14 16:26:32;;;;;;;1.45;1.35;;;;;;;23.64;55.61;97800.52;1742901;80;20902;-61
2022/07/14 16:28:59;;;;;;;2.00;1.60;;;;;;;23.48;56.47;97793.18;1749501;80;21399;-60
2022/07/14 16:31:27;;;;;;;2.47;1.40;;;;;;;23.28;56.69;97802.73;1800775;78;20987;-60
2022/07/14 16:33:54;;;;;;;7.95;1.95;;;;;;;23.12;57.44;97806.52;1763080;80;21205;-60
2022/07/14 16:36:22;;;;;;;4.05;1.85;;;;;;;22.96;58.40;97814.14;1753255;80;21025;-60
2022/07/14 16:38:48;;;;;;;2.85;1.70;;;;;;;22.81;59.11;97810.28;1764962;80;20920;-61
2022/07/14 16:41:15;;;;;;;2.77;1.80;;;;;;;22.65;59.69;97813.81;1764095;78;20868;-61
2022/07/14 16:43:42;;;;;;;3.02;2.40;;;;;;;22.46;61.08;97812.02;1763079;80;20936;-60
2022/07/14 16:46:08;;;;;;;4.40;1.90;;;;;;;22.27;63.79;97814.89;1750234;80;21137;-60
2022/07/14 16:48:35;;;;;;;4.60;2.00;;;;;;;22.06;64.93;97802.34;1767207;80;21459;-60
2022/07/14 16:51:02;;;;;;;3.22;2.02;;;;;;;21.89;68.04;97820.02;1750326;81;21331;-60
2022/07/14 16:53:29;;;;;;;5.75;2.17;;;;;;;21.66;68.28;97807.79;1789237;78;20892;-60
2022/07/14 16:55:55;;;;;;;3.58;2.00;;;;;;;21.51;68.83;97801.11;1764195;80;21508;-60
2022/07/14 16:58:22;;;;;;;2.55;2.10;;;;;;;21.39;69.86;97801.30;1806321;78;22122;-60
2022/07/14 17:00:48;;;;;;;2.55;2.20;;;;;;;21.29;70.07;97791.80;1768117;80;20894;-60
2022/07/14 17:03:15;;;;;;;4.37;2.30;;;;;;;21.19;70.44;97793.00;1736983;80;20989;-60
2022/07/14 17:08:28;;;;;;;2.47;1.92;;;;;;;21.05;71.96;97776.66;1795121;79;20861;-60
2022/07/14 17:10:55;;;;;;;3.40;2.60;;;;;;;21.07;72.78;97768.11;1760333;80;21116;-60
2022/07/14 17:13:22;;;;;;;2.92;2.10;;;;;;;21.12;73.44;97765.08;1765536;80;20900;-60
2022/07/14 17:15:49;;;;;;;3.17;2.37;;;;;;;21.15;74.04;97765.70;1801426;79;20904;-60
2022/07/14 17:18:16;;;;;;;3.50;2.12;;;;;;;21.16;74.89;97768.64;1779761;80;20888;-60
2022/07/14 17:20:43;;;;;;;3.77;2.08;;;;;;;21.18;75.15;97760.89;1793018;78;20908;-60
2022/07/14 17:23:09;;;;;;;3.60;2.05;;;;;;;21.17;75.56;97755.25;1797661;79;21267;-60
2022/07/14 17:25:36;;;;;;;3.20;2.02;;;;;;;21.22;76.14;97762.33;1794838;79;20931;-60
2022/07/14 17:28:04;;;;;;;3.85;1.85;;;;;;;21.23;76.62;97759.23;1800587;79;20986;-60
2022/07/14 17:30:32;;;;;;;2.62;2.00;;;;;;;21.22;77.70;97759.00;1767668;80;20970;-60
2022/07/14 17:32:58;;;;;;;3.10;2.10;;;;;;;21.21;78.18;97763.47;1812556;77;20947;-60
2022/07/14 17:35:26;;;;;;;2.60;1.95;;;;;;;21.19;79.13;97759.75;1829830;77;21194;-60
2022/07/14 17:37:52;;;;;;;3.47;2.10;;;;;;;21.13;80.20;97761.20;1812033;77;20876;-60
2022/07/14 17:40:19;;;;;;;3.60;2.30;;;;;;;21.04;80.73;97756.00;1810113;77;20891;-60
2022/07/14 17:42:46;;;;;;;2.83;1.95;;;;;;;20.94;81.33;97752.48;1825113;77;20928;-60
2022/07/14 17:45:13;;;;;;;2.52;2.10;;;;;;;20.87;81.83;97753.73;1826826;77;21628;-60
2022/07/14 17:47:39;;;;;;;2.95;2.10;;;;;;;20.78;82.34;97746.95;1819491;77;21227;-60
2022/07/14 17:50:06;;;;;;;5.15;2.40;;;;;;;20.70;82.49;97751.50;1825764;77;21017;-60
2022/07/14 17:52:33;;;;;;;5.20;2.20;;;;;;;20.63;82.67;97756.81;1827191;77;21406;-60
2022/07/14 17:54:59;;;;;;;2.85;2.33;;;;;;;20.56;83.48;97752.58;1777708;78;21181;-60
2022/07/14 17:57:26;;;;;;;3.35;2.05;;;;;;;20.50;84.03;97746.44;1820006;77;21010;-60
2022/07/14 17:59:53;;;;;;;3.30;2.15;;;;;;;20.41;84.40;97747.46;1828653;77;21262;-60